Time;durP1;ratioP1;P1;durP2;ratioP2;P2;SDS_P1;SDS_P2;PMS_P1;PMS_P2;Temp;Humidity;BMP_temperature;BMP_pressure;BME280_temperature;BME280_humidity;BME280_pressure;Samples;Min_cycle;Max_cycle;Signal;HPM_P1;HPM_P2
2022/04/27 00:02:40;;;;;;;8.63;5.17;;;;;;;;;;6179392;28;20285;-69
2022/04/27 00:06:02;;;;;;;8.00;3.63;;;;;;;;;;6173703;28;20233;-70
2022/04/27 00:09:23;;;;;;;7.07;4.00;;;;;;;;;;6177233;28;20530;-70
2022/04/27 00:12:43;;;;;;;6.33;3.73;;;;;;;;;;6179013;28;20238;-70
2022/04/27 00:16:05;;;;;;;6.53;3.80;;;;;;;;;;6180359;28;20237;-69
2022/04/27 00:19:27;;;;;;;6.67;3.80;;;;;;;;;;6182494;28;20246;-70
2022/04/27 00:22:49;;;;;;;6.53;4.67;;;;;;;;;;6181734;28;20250;-70
2022/04/27 00:26:10;;;;;;;4.73;3.33;;;;;;;;;;6172339;28;20230;-70
2022/04/27 00:29:30;;;;;;;10.03;4.20;;;;;;;;;;6173252;28;20604;-70
2022/04/27 00:32:51;;;;;;;6.00;4.20;;;;;;;;;;6169685;28;20233;-70
2022/04/27 00:36:12;;;;;;;5.07;3.63;;;;;;;;;;6179060;28;20314;-70
2022/04/27 00:39:34;;;;;;;8.27;4.87;;;;;;;;;;6176714;28;20229;-69
2022/04/27 00:42:54;;;;;;;4.80;3.40;;;;;;;;;;6175600;28;20234;-68
2022/04/27 00:46:15;;;;;;;6.77;4.50;;;;;;;;;;6183319;28;20577;-69
2022/04/27 00:49:36;;;;;;;5.10;4.43;;;;;;;;;;6173738;28;20571;-70
2022/04/27 00:52:57;;;;;;;6.63;4.63;;;;;;;;;;6155940;28;20268;-70
2022/04/27 00:56:21;;;;;;;8.23;4.63;;;;;;;;;;6177794;28;20234;-69
2022/04/27 00:59:41;;;;;;;7.23;4.23;;;;;;;;;;6177970;28;20542;-69
2022/04/27 01:03:02;;;;;;;7.13;4.43;;;;;;;;;;6150764;28;20328;-69
2022/04/27 01:06:23;;;;;;;5.67;4.47;;;;;;;;;;6172035;28;20618;-69
2022/04/27 01:09:43;;;;;;;8.50;4.80;;;;;;;;;;6173023;28;20238;-70
2022/04/27 01:13:06;;;;;;;7.47;4.87;;;;;;;;;;6177362;28;20230;-70
2022/04/27 01:16:26;;;;;;;6.57;4.40;;;;;;;;;;6177197;28;20403;-69
2022/04/27 01:19:47;;;;;;;6.73;5.03;;;;;;;;;;6162204;28;21103;-70
2022/04/27 01:23:09;;;;;;;6.80;4.07;;;;;;;;;;6176194;28;20226;-69
2022/04/27 01:26:30;;;;;;;8.20;4.33;;;;;;;;;;6164039;28;20230;-69
2022/04/27 01:29:51;;;;;;;4.80;3.70;;;;;;;;;;6162989;28;20230;-70
2022/04/27 01:33:12;;;;;;;8.30;3.87;;;;;;;;;;6165707;28;20686;-70
2022/04/27 01:36:32;;;;;;;5.73;4.27;;;;;;;;;;6177665;28;20241;-70
2022/04/27 01:39:54;;;;;;;9.50;5.10;;;;;;;;;;6174720;28;20221;-70
2022/04/27 01:43:15;;;;;;;5.70;4.53;;;;;;;;;;6170082;28;20233;-69
2022/04/27 01:46:36;;;;;;;5.93;4.37;;;;;;;;;;6171773;28;20603;-69
2022/04/27 01:49:56;;;;;;;6.70;4.63;;;;;;;;;;6173944;28;20234;-70
2022/04/27 01:56:57;;;;;;;6.23;3.57;;;;;;;;;;6168206;28;20250;-68
2022/04/27 02:00:18;;;;;;;5.70;4.30;;;;;;;;;;6177908;28;20237;-69
2022/04/27 02:03:40;;;;;;;4.37;3.93;;;;;;;;;;6171566;28;20237;-69
2022/04/27 02:07:05;;;;;;;4.80;3.83;;;;;;;;;;6157963;28;20234;-69
2022/04/27 02:10:26;;;;;;;5.10;4.13;;;;;;;;;;6132984;28;20241;-69
2022/04/27 02:13:49;;;;;;;6.53;4.60;;;;;;;;;;6156030;28;20305;-69
2022/04/27 02:17:09;;;;;;;7.03;4.53;;;;;;;;;;6175505;28;20229;-69
2022/04/27 02:20:30;;;;;;;5.90;4.50;;;;;;;;;;6148161;28;20230;-69
2022/04/27 02:23:51;;;;;;;4.77;3.83;;;;;;;;;;6158084;28;20329;-67
2022/04/27 02:27:11;;;;;;;5.87;3.40;;;;;;;;;;6175621;28;20336;-69
2022/04/27 02:30:33;;;;;;;8.07;4.07;;;;;;;;;;6155912;28;20230;-69
2022/04/27 02:33:53;;;;;;;7.37;3.63;;;;;;;;;;6174505;28;20616;-69
2022/04/27 02:37:14;;;;;;;6.33;3.90;;;;;;;;;;6174444;28;20234;-70
2022/04/27 02:40:37;;;;;;;5.90;4.37;;;;;;;;;;6146055;28;20766;-69
2022/04/27 02:43:59;;;;;;;8.43;4.30;;;;;;;;;;6158708;28;20324;-69
2022/04/27 02:47:21;;;;;;;6.97;4.33;;;;;;;;;;6173347;28;20518;-67
2022/04/27 02:54:21;;;;;;;5.50;4.20;;;;;;;;;;6171608;28;20233;-68
2022/04/27 02:57:42;;;;;;;5.67;3.93;;;;;;;;;;6172658;28;20250;-68
2022/04/27 03:01:03;;;;;;;5.63;4.97;;;;;;;;;;6178517;28;20225;-69
2022/04/27 03:04:25;;;;;;;8.70;4.00;;;;;;;;;;6160537;28;20245;-70
2022/04/27 03:07:46;;;;;;;13.30;5.77;;;;;;;;;;6173380;28;20237;-69
2022/04/27 03:11:07;;;;;;;6.17;3.70;;;;;;;;;;6168685;28;20238;-69
2022/04/27 03:14:53;;;;;;;11.30;6.20;;;;;;;;;;6182570;28;20226;-69
2022/04/27 03:18:20;;;;;;;4.83;4.30;;;;;;;;;;6177155;28;20233;-68
2022/04/27 03:21:44;;;;;;;6.67;4.67;;;;;;;;;;6169395;28;20244;-69
2022/04/27 03:25:05;;;;;;;6.23;3.90;;;;;;;;;;6190373;28;20225;-67
2022/04/27 03:28:26;;;;;;;8.27;5.27;;;;;;;;;;6181247;28;21049;-67
2022/04/27 03:31:48;;;;;;;7.50;6.73;;;;;;;;;;6170972;28;20248;-69
2022/04/27 03:35:09;;;;;;;13.43;12.00;;;;;;;;;;6183782;28;20256;-68
2022/04/27 03:38:31;;;;;;;6.17;5.27;;;;;;;;;;6184962;28;20603;-67
2022/04/27 03:41:51;;;;;;;5.70;4.00;;;;;;;;;;6187206;28;20233;-68
2022/04/27 03:45:12;;;;;;;3.77;3.40;;;;;;;;;;6183219;28;20233;-69
2022/04/27 03:48:35;;;;;;;10.30;5.10;;;;;;;;;;6184661;28;20234;-67
2022/04/27 03:51:58;;;;;;;7.63;5.27;;;;;;;;;;6184963;28;20309;-69
2022/04/27 03:55:19;;;;;;;9.43;4.87;;;;;;;;;;6163461;28;20234;-69
2022/04/27 03:58:41;;;;;;;6.67;4.57;;;;;;;;;;6182629;28;20233;-68
2022/04/27 04:02:03;;;;;;;13.13;7.80;;;;;;;;;;6170016;28;20252;-69
2022/04/27 04:05:24;;;;;;;21.70;19.47;;;;;;;;;;6155307;28;20265;-67
2022/04/27 04:08:44;;;;;;;11.40;9.80;;;;;;;;;;6182694;28;20249;-69
2022/04/27 04:12:07;;;;;;;13.77;12.40;;;;;;;;;;6178831;28;20237;-69
2022/04/27 04:15:56;;;;;;;7.57;4.70;;;;;;;;;;6180132;28;20258;-69
2022/04/27 04:19:32;;;;;;;19.57;17.07;;;;;;;;;;6161931;28;20230;-69
2022/04/27 04:23:02;;;;;;;9.27;8.10;;;;;;;;;;6160397;28;20333;-69
2022/04/27 04:30:14;;;;;;;5.20;4.13;;;;;;;;;;6150598;28;20229;-69
2022/04/27 04:33:38;;;;;;;8.87;5.10;;;;;;;;;;6165725;28;20520;-69
2022/04/27 04:37:01;;;;;;;7.00;4.17;;;;;;;;;;6177439;28;20237;-70
2022/04/27 04:40:22;;;;;;;8.60;5.47;;;;;;;;;;6161473;28;20329;-70
2022/04/27 04:43:42;;;;;;;6.13;4.37;;;;;;;;;;6151568;28;20234;-68
2022/04/27 04:47:05;;;;;;;5.60;3.93;;;;;;;;;;6167964;28;20519;-69
2022/04/27 04:50:46;;;;;;;7.63;4.57;;;;;;;;;;6179499;28;20234;-68
2022/04/27 04:54:26;;;;;;;5.53;4.57;;;;;;;;;;6174818;28;20246;-68
2022/04/27 04:58:07;;;;;;;7.23;4.60;;;;;;;;;;6153218;28;20241;-68
2022/04/27 05:01:56;;;;;;;7.03;4.23;;;;;;;;;;6151876;28;20238;-69
2022/04/27 05:05:39;;;;;;;20.97;19.07;;;;;;;;;;6164567;28;20230;-68
2022/04/27 05:09:23;;;;;;;9.67;8.13;;;;;;;;;;6147712;28;20238;-69
2022/04/27 05:13:02;;;;;;;5.33;4.83;;;;;;;;;;6166594;28;20257;-70
2022/04/27 05:16:41;;;;;;;8.50;5.03;;;;;;;;;;6158410;28;20261;-70
2022/04/27 05:20:14;;;;;;;5.73;4.00;;;;;;;;;;6156578;28;20627;-67
2022/04/27 05:24:06;;;;;;;8.17;4.47;;;;;;;;;;6108634;28;20238;-68
2022/04/27 05:27:41;;;;;;;7.27;4.90;;;;;;;;;;6175908;28;20265;-69
2022/04/27 05:35:05;;;;;;;8.13;5.20;;;;;;;;;;6134561;28;20226;-68
2022/04/27 05:38:46;;;;;;;9.40;4.57;;;;;;;;;;6176156;28;20626;-69
2022/04/27 05:42:26;;;;;;;9.83;4.33;;;;;;;;;;6173020;28;20230;-69
2022/04/27 05:45:56;;;;;;;8.63;5.30;;;;;;;;;;6158184;28;20324;-68
2022/04/27 05:49:30;;;;;;;7.50;5.63;;;;;;;;;;6160754;28;20628;-69
2022/04/27 05:53:09;;;;;;;8.90;5.03;;;;;;;;;;6167643;28;20547;-69
2022/04/27 05:56:35;;;;;;;12.73;5.60;;;;;;;;;;6157358;28;20242;-68
2022/04/27 05:59:59;;;;;;;5.27;4.77;;;;;;;;;;6163910;28;20499;-69
2022/04/27 06:03:44;;;;;;;6.97;4.73;;;;;;;;;;6177952;28;20241;-70
2022/04/27 06:07:06;;;;;;;7.83;5.13;;;;;;;;;;6161432;28;20301;-71
2022/04/27 06:10:26;;;;;;;6.10;5.47;;;;;;;;;;6182910;28;20229;-69
2022/04/27 06:13:53;;;;;;;9.23;5.03;;;;;;;;;;6169429;28;20237;-69
2022/04/27 06:17:26;;;;;;;6.57;4.70;;;;;;;;;;6183595;28;20560;-69
2022/04/27 06:20:47;;;;;;;6.93;4.57;;;;;;;;;;6167269;28;20234;-69
2022/04/27 06:24:09;;;;;;;7.10;4.93;;;;;;;;;;6179891;28;20234;-70
2022/04/27 06:27:32;;;;;;;7.80;4.67;;;;;;;;;;6148783;28;20646;-70
2022/04/27 06:30:52;;;;;;;11.77;7.90;;;;;;;;;;6171168;28;20246;-70
2022/04/27 06:34:14;;;;;;;20.80;18.83;;;;;;;;;;6167434;28;20337;-69
2022/04/27 06:37:36;;;;;;;6.93;4.60;;;;;;;;;;6184724;28;20230;-69
2022/04/27 06:40:57;;;;;;;5.30;4.07;;;;;;;;;;6168150;28;20223;-68
2022/04/27 06:44:20;;;;;;;12.77;7.93;;;;;;;;;;6165210;28;20318;-68
2022/04/27 06:47:59;;;;;;;9.27;4.93;;;;;;;;;;6183946;28;20628;-69
2022/04/27 06:51:41;;;;;;;20.47;18.30;;;;;;;;;;6152377;28;20230;-71
2022/04/27 06:55:28;;;;;;;8.40;6.67;;;;;;;;;;6151635;28;20234;-70
2022/04/27 06:59:12;;;;;;;8.77;5.80;;;;;;;;;;6182017;28;20320;-70
2022/04/27 07:02:33;;;;;;;6.57;5.83;;;;;;;;;;6163743;28;20229;-69
2022/04/27 07:05:53;;;;;;;6.73;4.47;;;;;;;;;;6185269;28;20237;-70
2022/04/27 07:09:15;;;;;;;5.37;4.53;;;;;;;;;;6168418;28;20234;-70
2022/04/27 07:12:35;;;;;;;5.63;4.73;;;;;;;;;;6182352;28;20225;-70
2022/04/27 07:16:00;;;;;;;8.87;4.50;;;;;;;;;;6185401;28;20231;-69
2022/04/27 07:19:21;;;;;;;4.87;3.57;;;;;;;;;;6164929;28;20935;-68
2022/04/27 07:22:42;;;;;;;8.13;4.23;;;;;;;;;;6182930;28;20234;-64
2022/04/27 07:26:06;;;;;;;4.67;3.57;;;;;;;;;;6184845;28;20225;-68
2022/04/27 07:29:26;;;;;;;7.40;3.80;;;;;;;;;;6181937;28;20226;-69
2022/04/27 07:32:49;;;;;;;7.57;4.03;;;;;;;;;;6180821;28;20233;-69
2022/04/27 07:36:10;;;;;;;7.13;4.50;;;;;;;;;;6185209;28;20663;-69
2022/04/27 07:39:32;;;;;;;9.93;6.87;;;;;;;;;;6179624;28;20230;-69
2022/04/27 07:42:55;;;;;;;6.17;4.00;;;;;;;;;;6179749;28;20625;-69
2022/04/27 07:46:15;;;;;;;4.00;3.60;;;;;;;;;;6181854;28;20230;-69
2022/04/27 07:49:36;;;;;;;8.40;4.47;;;;;;;;;;6182414;28;20788;-69
2022/04/27 07:52:57;;;;;;;6.83;4.70;;;;;;;;;;6180702;28;20234;-69
2022/04/27 07:56:18;;;;;;;5.10;3.80;;;;;;;;;;6173161;28;20249;-70
2022/04/27 07:59:40;;;;;;;10.30;5.00;;;;;;;;;;6186425;28;20234;-69
2022/04/27 08:03:00;;;;;;;7.03;5.47;;;;;;;;;;6185954;28;20234;-68
2022/04/27 08:06:21;;;;;;;5.90;3.80;;;;;;;;;;6188876;28;20320;-69
2022/04/27 08:09:44;;;;;;;4.70;3.07;;;;;;;;;;6186585;28;20234;-69
2022/04/27 08:13:05;;;;;;;5.33;3.83;;;;;;;;;;6185542;28;20630;-67
2022/04/27 08:16:27;;;;;;;8.63;3.23;;;;;;;;;;6190913;28;20325;-69
2022/04/27 08:19:47;;;;;;;4.67;3.30;;;;;;;;;;6186887;28;20527;-69
2022/04/27 08:23:08;;;;;;;6.87;3.23;;;;;;;;;;6186026;28;20325;-70
2022/04/27 08:26:31;;;;;;;4.23;3.27;;;;;;;;;;6183672;28;20250;-69
2022/04/27 08:29:53;;;;;;;8.07;4.47;;;;;;;;;;6189478;28;20229;-69
2022/04/27 08:33:15;;;;;;;5.73;3.03;;;;;;;;;;6177756;28;20230;-67
2022/04/27 08:36:36;;;;;;;3.30;3.00;;;;;;;;;;6182473;28;20325;-69
2022/04/27 08:40:01;;;;;;;8.30;3.10;;;;;;;;;;6173660;28;20253;-69
2022/04/27 08:43:22;;;;;;;13.30;5.80;;;;;;;;;;6186659;28;20316;-69
2022/04/27 08:46:43;;;;;;;9.03;3.20;;;;;;;;;;6185828;28;20231;-69
2022/04/27 08:50:12;;;;;;;4.63;2.90;;;;;;;;;;6185820;28;20246;-69
2022/04/27 08:53:33;;;;;;;10.10;3.20;;;;;;;;;;6182749;28;20237;-69
2022/04/27 08:56:54;;;;;;;6.07;3.60;;;;;;;;;;6187115;28;20238;-70
2022/04/27 09:00:15;;;;;;;13.27;4.97;;;;;;;;;;6160136;28;20241;-70
2022/04/27 09:03:37;;;;;;;10.50;3.70;;;;;;;;;;6180075;28;20222;-68
2022/04/27 09:07:16;;;;;;;7.77;3.50;;;;;;;;;;6187175;28;20237;-70
2022/04/27 09:10:36;;;;;;;9.27;4.07;;;;;;;;;;6186651;28;20230;-69
2022/04/27 09:13:58;;;;;;;4.47;3.17;;;;;;;;;;6185496;28;20226;-69
2022/04/27 09:21:00;;;;;;;3.43;3.13;;;;;;;;;;6184819;28;20226;-69
2022/04/27 09:24:25;;;;;;;6.07;3.80;;;;;;;;;;6186692;28;20233;-68
2022/04/27 09:27:46;;;;;;;6.17;4.10;;;;;;;;;;6183551;28;20246;-68
2022/04/27 09:31:07;;;;;;;6.90;3.83;;;;;;;;;;6188142;28;20317;-69
2022/04/27 09:34:31;;;;;;;8.37;6.53;;;;;;;;;;6185517;28;20238;-68
2022/04/27 09:37:52;;;;;;;7.43;3.93;;;;;;;;;;6183472;28;20825;-69
2022/04/27 09:41:14;;;;;;;6.70;4.20;;;;;;;;;;6183989;28;20238;-70
2022/04/27 09:44:35;;;;;;;5.77;3.83;;;;;;;;;;6169102;28;20230;-70
2022/04/27 09:48:01;;;;;;;5.43;4.57;;;;;;;;;;6185073;28;20242;-69
2022/04/27 09:51:22;;;;;;;4.77;4.37;;;;;;;;;;6186133;28;20233;-68
2022/04/27 09:54:44;;;;;;;8.70;4.37;;;;;;;;;;6182769;28;20736;-70
2022/04/27 09:58:06;;;;;;;4.67;3.80;;;;;;;;;;6180913;28;20234;-68
2022/04/27 10:01:26;;;;;;;6.60;4.57;;;;;;;;;;6186274;28;20643;-69
2022/04/27 10:04:47;;;;;;;4.90;3.73;;;;;;;;;;6171622;28;20238;-69
2022/04/27 10:08:08;;;;;;;5.30;4.57;;;;;;;;;;6171288;28;20233;-70
2022/04/27 10:11:28;;;;;;;4.63;4.10;;;;;;;;;;6186832;28;20921;-69
2022/04/27 10:14:51;;;;;;;5.97;4.63;;;;;;;;;;6185078;28;20256;-69
2022/04/27 10:18:14;;;;;;;4.80;4.33;;;;;;;;;;6181011;28;20486;-69
2022/04/27 10:21:43;;;;;;;8.30;4.43;;;;;;;;;;6188531;28;21128;-69
2022/04/27 10:25:07;;;;;;;4.20;3.60;;;;;;;;;;6186133;28;20304;-69
2022/04/27 10:28:28;;;;;;;5.53;4.20;;;;;;;;;;6181956;28;20268;-69
2022/04/27 10:32:02;;;;;;;4.93;3.43;;;;;;;;;;6185519;28;20242;-71
2022/04/27 10:35:27;;;;;;;11.63;4.70;;;;;;;;;;6187819;28;20316;-70
2022/04/27 10:39:02;;;;;;;6.17;3.83;;;;;;;;;;6183005;28;20319;-70
2022/04/27 10:42:32;;;;;;;6.17;3.80;;;;;;;;;;6177599;28;20234;-67
2022/04/27 10:45:52;;;;;;;5.40;3.60;;;;;;;;;;6183427;28;20320;-69
2022/04/27 10:49:24;;;;;;;3.43;3.13;;;;;;;;;;6182258;28;20233;-69
2022/04/27 10:52:51;;;;;;;5.90;3.73;;;;;;;;;;6181989;28;20684;-69
2022/04/27 10:56:21;;;;;;;6.17;3.70;;;;;;;;;;6180339;28;20328;-70
2022/04/27 10:59:45;;;;;;;5.10;3.53;;;;;;;;;;6183858;28;20233;-70
2022/04/27 11:03:16;;;;;;;8.17;3.87;;;;;;;;;;6180694;28;20226;-70
2022/04/27 11:06:57;;;;;;;5.17;2.93;;;;;;;;;;6180823;28;20233;-69
2022/04/27 11:10:17;;;;;;;2.80;2.57;;;;;;;;;;6181541;28;20234;-68
2022/04/27 11:13:38;;;;;;;3.33;2.80;;;;;;;;;;6178018;28;20241;-68
2022/04/27 11:16:58;;;;;;;3.17;2.70;;;;;;;;;;6181234;28;20321;-68
2022/04/27 11:20:27;;;;;;;4.83;3.33;;;;;;;;;;6154242;28;20698;-69
2022/04/27 11:23:51;;;;;;;4.90;3.70;;;;;;;;;;6184827;28;20252;-69
2022/04/27 11:27:12;;;;;;;5.57;2.90;;;;;;;;;;6183781;28;20237;-69
2022/04/27 11:30:33;;;;;;;6.33;3.70;;;;;;;;;;6189565;28;20300;-70
2022/04/27 11:33:53;;;;;;;3.40;3.10;;;;;;;;;;6186208;28;20233;-69
2022/04/27 11:37:15;;;;;;;5.97;3.17;;;;;;;;;;6183605;28;20544;-68
2022/04/27 11:40:39;;;;;;;5.90;3.00;;;;;;;;;;6189310;28;20619;-68
2022/04/27 11:44:00;;;;;;;3.70;2.87;;;;;;;;;;6185156;28;20624;-69
2022/04/27 11:47:28;;;;;;;3.20;2.87;;;;;;;;;;6188651;28;20222;-68
2022/04/27 11:50:49;;;;;;;5.70;3.30;;;;;;;;;;6190166;28;20230;-68
2022/04/27 11:54:10;;;;;;;4.27;3.87;;;;;;;;;;6187188;28;20234;-69
2022/04/27 11:57:32;;;;;;;10.33;9.50;;;;;;;;;;6184450;28;20238;-69
2022/04/27 12:00:54;;;;;;;5.47;3.40;;;;;;;;;;6187148;28;20603;-67
2022/04/27 12:04:16;;;;;;;10.30;9.27;;;;;;;;;;6181694;28;20226;-67
2022/04/27 12:07:37;;;;;;;7.25;3.97;;;;;;;;;;6181467;28;20226;-69
2022/04/27 12:10:58;;;;;;;2.90;2.70;;;;;;;;;;6184025;28;20226;-68
2022/04/27 12:14:21;;;;;;;5.03;3.97;;;;;;;;;;6180554;28;20242;-69
2022/04/27 12:17:50;;;;;;;5.07;3.13;;;;;;;;;;6187551;28;20230;-68
2022/04/27 12:21:19;;;;;;;4.22;3.58;;;;;;;;;;6173500;28;20230;-69
2022/04/27 12:24:44;;;;;;;3.88;3.55;;;;;;;;;;6184783;28;20245;-69
2022/04/27 12:28:05;;;;;;;3.40;3.10;;;;;;;;;;6186382;28;20322;-69
2022/04/27 12:31:31;;;;;;;5.32;2.72;;;;;;;;;;6191401;28;20230;-68
2022/04/27 12:38:30;;;;;;;4.25;3.10;;;;;;;;;;6183400;28;20213;-69
2022/04/27 12:41:52;;;;;;;4.35;3.55;;;;;;;;;;6185403;28;20549;-69
2022/04/27 12:45:16;;;;;;;3.25;2.72;;;;;;;;;;6183825;28;20261;-69
2022/04/27 12:48:38;;;;;;;4.03;3.30;;;;;;;;;;6169892;28;20234;-69
2022/04/27 12:52:13;;;;;;;4.95;3.38;;;;;;;;;;6184541;28;20685;-68
2022/04/27 12:55:34;;;;;;;4.95;4.45;;;;;;;;;;6180584;28;20237;-69
2022/04/27 12:59:05;;;;;;;4.05;3.25;;;;;;;;;;6187048;28;20230;-69
2022/04/27 13:02:26;;;;;;;5.18;3.40;;;;;;;;;;6184457;28;20230;-69
2022/04/27 13:05:50;;;;;;;5.88;5.47;;;;;;;;;;6186553;28;20233;-69
2022/04/27 13:12:49;;;;;;;2.95;2.75;;;;;;;;;;6183354;28;20222;-68
2022/04/27 13:16:10;;;;;;;5.10;4.63;;;;;;;;;;6188477;28;20221;-69
2022/04/27 13:19:30;;;;;;;3.92;3.60;;;;;;;;;;6177921;28;20226;-69
2022/04/27 13:22:52;;;;;;;3.85;3.53;;;;;;;;;;6176815;28;20238;-69
2022/04/27 13:26:15;;;;;;;4.80;3.60;;;;;;;;;;6180677;28;20635;-69
2022/04/27 13:29:36;;;;;;;3.00;2.72;;;;;;;;;;6180984;28;20273;-69
2022/04/27 13:32:59;;;;;;;4.05;3.50;;;;;;;;;;6181728;28;20230;-68
2022/04/27 13:36:19;;;;;;;7.05;3.40;;;;;;;;;;6184101;28;20229;-69
2022/04/27 13:39:41;;;;;;;6.68;3.90;;;;;;;;;;6179731;28;20230;-68
2022/04/27 13:43:01;;;;;;;5.32;3.30;;;;;;;;;;6180643;28;20241;-69
2022/04/27 13:46:23;;;;;;;3.17;2.90;;;;;;;;;;6176298;28;20320;-70
2022/04/27 13:49:43;;;;;;;6.90;3.38;;;;;;;;;;6178283;28;20249;-68
2022/04/27 13:53:04;;;;;;;5.53;3.58;;;;;;;;;;6172030;28;20264;-70
2022/04/27 13:56:26;;;;;;;4.82;2.88;;;;;;;;;;6180758;28;20230;-70
2022/04/27 13:59:46;;;;;;;3.35;2.67;;;;;;;;;;6174119;28;20226;-68
2022/04/27 14:03:07;;;;;;;3.92;3.10;;;;;;;;;;6174067;28;21659;-72
2022/04/27 14:06:30;;;;;;;5.00;3.13;;;;;;;;;;6177028;28;20261;-69
2022/04/27 14:09:53;;;;;;;3.35;3.15;;;;;;;;;;6178315;28;20243;-70
2022/04/27 14:13:17;;;;;;;5.75;3.35;;;;;;;;;;6174743;28;20234;-70
2022/04/27 14:20:16;;;;;;;4.78;2.35;;;;;;;;;;6169371;28;20246;-70
2022/04/27 14:23:37;;;;;;;4.88;3.10;;;;;;;;;;6182082;28;20225;-71
2022/04/27 14:26:57;;;;;;;5.60;3.00;;;;;;;;;;6180884;28;20234;-69
2022/04/27 14:30:19;;;;;;;6.05;3.30;;;;;;;;;;6184065;28;20226;-71
2022/04/27 14:33:40;;;;;;;3.95;3.55;;;;;;;;;;6179594;28;20285;-69
2022/04/27 14:37:01;;;;;;;4.05;3.70;;;;;;;;;;6180872;28;20229;-70
2022/04/27 14:40:22;;;;;;;4.75;3.50;;;;;;;;;;6182945;28;20238;-71
2022/04/27 14:43:43;;;;;;;4.00;3.67;;;;;;;;;;6178476;28;20230;-70
2022/04/27 14:47:05;;;;;;;8.80;4.03;;;;;;;;;;6179531;28;20230;-70
2022/04/27 14:50:26;;;;;;;3.97;3.42;;;;;;;;;;6175083;28;20675;-69
2022/04/27 14:53:46;;;;;;;3.60;2.70;;;;;;;;;;6180922;28;20901;-69
2022/04/27 14:57:09;;;;;;;4.28;3.05;;;;;;;;;;6179565;28;20635;-72
2022/04/27 15:00:30;;;;;;;3.83;3.45;;;;;;;;;;6172141;28;20262;-68
2022/04/27 15:03:55;;;;;;;3.75;2.92;;;;;;;;;;6173136;28;20264;-69
2022/04/27 15:07:15;;;;;;;3.80;2.58;;;;;;;;;;6177073;28;20222;-70
2022/04/27 15:10:37;;;;;;;3.60;3.28;;;;;;;;;;6183196;28;20539;-69
2022/04/27 15:13:58;;;;;;;5.32;3.42;;;;;;;;;;6164309;28;20226;-70
2022/04/27 15:17:18;;;;;;;4.53;3.60;;;;;;;;;;6178667;28;20230;-69
2022/04/27 15:24:25;;;;;;;4.22;3.83;;;;;;;;;;6174374;28;20617;-70
2022/04/27 15:27:46;;;;;;;3.47;3.22;;;;;;;;;;6171822;28;20265;-70
2022/04/27 15:31:07;;;;;;;3.80;2.70;;;;;;;;;;6181060;28;20646;-69
2022/04/27 15:34:27;;;;;;;5.50;3.28;;;;;;;;;;6166577;28;20237;-71
2022/04/27 15:37:49;;;;;;;3.08;2.78;;;;;;;;;;6181308;28;20265;-70
2022/04/27 15:41:13;;;;;;;5.15;3.10;;;;;;;;;;6182456;28;20237;-70
2022/04/27 15:44:35;;;;;;;5.35;3.45;;;;;;;;;;6177488;28;20229;-70
2022/04/27 15:47:56;;;;;;;12.93;11.63;;;;;;;;;;6180276;28;20222;-69
2022/04/27 15:51:17;;;;;;;5.63;4.35;;;;;;;;;;6175713;28;20241;-72
2022/04/27 15:54:39;;;;;;;6.68;5.40;;;;;;;;;;6167932;28;20716;-71
2022/04/27 15:58:00;;;;;;;18.48;11.15;;;;;;;;;;6163900;28;20226;-69
2022/04/27 16:01:21;;;;;;;10.70;7.05;;;;;;;;;;6172609;28;20238;-69
2022/04/27 16:04:42;;;;;;;6.80;6.10;;;;;;;;;;6170914;28;20225;-70
2022/04/27 16:08:03;;;;;;;8.57;5.05;;;;;;;;;;6166227;28;20239;-70
2022/04/27 16:11:25;;;;;;;9.27;7.93;;;;;;;;;;6173230;28;20313;-70
2022/04/27 16:14:46;;;;;;;6.35;5.53;;;;;;;;;;6179952;28;20245;-71
2022/04/27 16:18:08;;;;;;;9.70;8.05;;;;;;;;;;6178484;28;20226;-70
2022/04/27 16:25:07;;;;;;;19.02;16.90;;;;;;;;;;6185052;28;20233;-70
2022/04/27 16:28:29;;;;;;;6.00;5.50;;;;;;;;;;6184650;28;20237;-69
2022/04/27 16:31:49;;;;;;;10.02;9.05;;;;;;;;;;6182959;28;20264;-68
2022/04/27 16:35:10;;;;;;;8.60;7.25;;;;;;;;;;6180403;28;20241;-68
2022/04/27 16:38:31;;;;;;;5.30;4.50;;;;;;;;;;6181871;28;20254;-69
2022/04/27 16:41:52;;;;;;;4.88;3.63;;;;;;;;;;6183547;28;20253;-70
2022/04/27 16:45:13;;;;;;;3.67;3.33;;;;;;;;;;6185190;28;20325;-72
2022/04/27 16:48:34;;;;;;;5.22;3.70;;;;;;;;;;6180249;28;20237;-71
2022/04/27 16:51:55;;;;;;;12.90;11.60;;;;;;;;;;6181890;28;20234;-70
2022/04/27 16:55:15;;;;;;;14.95;13.38;;;;;;;;;;6177756;28;20238;-71
2022/04/27 16:58:36;;;;;;;14.48;11.13;;;;;;;;;;6175184;28;20234;-70
2022/04/27 17:01:58;;;;;;;15.63;13.40;;;;;;;;;;6179094;28;20261;-70
2022/04/27 17:05:20;;;;;;;7.85;5.43;;;;;;;;;;6181703;28;20358;-71
2022/04/27 17:08:42;;;;;;;5.20;4.45;;;;;;;;;;6172547;28;20226;-70
2022/04/27 17:12:02;;;;;;;7.30;3.55;;;;;;;;;;6180942;28;20647;-69
2022/04/27 17:15:22;;;;;;;4.25;3.38;;;;;;;;;;6170100;28;20242;-71
2022/04/27 17:18:45;;;;;;;4.10;3.38;;;;;;;;;;6176147;28;20229;-70
2022/04/27 17:22:05;;;;;;;3.90;3.50;;;;;;;;;;6173940;28;20340;-71
2022/04/27 17:29:00;;;;;;;6.47;3.85;;;;;;;;;;6173526;28;20270;-71
2022/04/27 17:32:21;;;;;;;5.68;4.45;;;;;;;;;;6174806;28;20307;-71
2022/04/27 17:35:43;;;;;;;11.30;10.18;;;;;;;;;;6175644;28;20229;-70
2022/04/27 17:39:03;;;;;;;5.93;4.90;;;;;;;;;;6177001;28;20245;-71
2022/04/27 17:42:36;;;;;;;9.32;6.53;;;;;;;;;;6166000;28;20229;-70
2022/04/27 17:45:57;;;;;;;4.07;3.30;;;;;;;;;;6166594;28;20234;-73
2022/04/27 17:49:18;;;;;;;8.90;7.60;;;;;;;;;;6169962;28;20565;-75
2022/04/27 17:52:40;;;;;;;6.47;5.88;;;;;;;;;;6179048;28;20230;-72
2022/04/27 17:56:01;;;;;;;9.97;7.10;;;;;;;;;;6183182;28;20242;-75
2022/04/27 17:59:22;;;;;;;12.47;10.77;;;;;;;;;;6182375;28;20259;-76
2022/04/27 18:02:44;;;;;;;10.67;6.93;;;;;;;;;;6181965;28;20234;-75
2022/04/27 18:06:04;;;;;;;10.20;7.87;;;;;;;;;;6178856;28;20233;-75
2022/04/27 18:09:29;;;;;;;18.53;16.63;;;;;;;;;;6181189;28;20226;-73
2022/04/27 18:12:50;;;;;;;12.47;11.00;;;;;;;;;;6173088;28;20289;-74
2022/04/27 18:16:10;;;;;;;5.80;4.83;;;;;;;;;;6179817;28;20233;-73
2022/04/27 18:19:33;;;;;;;8.77;7.97;;;;;;;;;;6181368;28;20233;-72
2022/04/27 18:22:53;;;;;;;7.40;4.67;;;;;;;;;;6176792;28;21378;-71
2022/04/27 18:26:16;;;;;;;4.27;2.90;;;;;;;;;;6182556;28;20253;-72
2022/04/27 18:29:36;;;;;;;13.20;3.17;;;;;;;;;;6176030;28;20325;-72
2022/04/27 18:32:57;;;;;;;4.80;2.37;;;;;;;;;;6177260;28;20309;-72
2022/04/27 18:36:18;;;;;;;3.53;2.30;;;;;;;;;;6179602;28;20230;-72
2022/04/27 18:39:39;;;;;;;4.27;3.40;;;;;;;;;;6180812;28;20666;-74
2022/04/27 18:43:01;;;;;;;9.73;8.33;;;;;;;;;;6177129;28;20242;-72
2022/04/27 18:50:01;;;;;;;9.83;5.33;;;;;;;;;;6177201;28;20230;-72
2022/04/27 18:53:26;;;;;;;17.13;11.93;;;;;;;;;;6178719;28;20234;-70
2022/04/27 18:56:47;;;;;;;8.13;6.17;;;;;;;;;;6175944;28;20262;-71
2022/04/27 19:00:10;;;;;;;12.13;8.60;;;;;;;;;;6177276;28;20234;-71
2022/04/27 19:03:31;;;;;;;5.33;4.27;;;;;;;;;;6176643;28;20230;-72
2022/04/27 19:06:51;;;;;;;13.53;10.63;;;;;;;;;;6178245;28;20792;-75
2022/04/27 19:10:14;;;;;;;14.30;11.33;;;;;;;;;;6178887;28;21992;-74
2022/04/27 19:13:38;;;;;;;8.00;4.20;;;;;;;;;;6169991;28;20257;-73
2022/04/27 19:17:00;;;;;;;8.13;5.60;;;;;;;;;;6167430;28;20238;-70
2022/04/27 19:20:21;;;;;;;15.10;8.17;;;;;;;;;;6157082;28;21671;-72
2022/04/27 19:23:42;;;;;;;11.20;8.57;;;;;;;;;;6165183;28;20234;-70
2022/04/27 19:27:03;;;;;;;7.60;4.40;;;;;;;;;;6179204;28;20253;-71
2022/04/27 19:30:24;;;;;;;8.73;4.77;;;;;;;;;;6176052;28;20667;-72
2022/04/27 19:33:47;;;;;;;19.63;10.63;;;;;;;;;;6165454;28;20237;-70
2022/04/27 19:37:08;;;;;;;14.37;8.57;;;;;;;;;;6170149;28;20242;-69
2022/04/27 19:40:29;;;;;;;16.27;12.00;;;;;;;;;;6171794;28;20245;-70
2022/04/27 19:43:49;;;;;;;7.43;4.90;;;;;;;;;;6169105;28;20245;-71
2022/04/27 19:47:10;;;;;;;12.93;7.30;;;;;;;;;;6171638;28;20599;-68
2022/04/27 19:50:31;;;;;;;6.43;3.70;;;;;;;;;;6173649;28;20301;-69
2022/04/27 19:53:52;;;;;;;5.43;3.17;;;;;;;;;;6180281;28;20262;-70
2022/04/27 19:57:13;;;;;;;7.00;3.67;;;;;;;;;;6178866;28;20837;-68
2022/04/27 20:00:34;;;;;;;6.27;3.13;;;;;;;;;;6178426;28;20743;-69
2022/04/27 20:03:57;;;;;;;8.57;3.17;;;;;;;;;;6181471;28;20249;-69
2022/04/27 20:07:19;;;;;;;6.93;3.77;;;;;;;;;;6179413;28;20766;-68
2022/04/27 20:10:39;;;;;;;10.23;3.63;;;;;;;;;;6161155;28;20230;-70
2022/04/27 20:14:00;;;;;;;6.43;3.00;;;;;;;;;;6178115;28;20234;-69
2022/04/27 20:17:20;;;;;;;10.73;4.00;;;;;;;;;;6179537;28;20623;-68
2022/04/27 20:20:41;;;;;;;6.93;3.90;;;;;;;;;;6180487;28;20230;-70
2022/04/27 20:24:03;;;;;;;8.30;3.40;;;;;;;;;;6179771;28;20234;-69
2022/04/27 20:27:24;;;;;;;5.20;3.23;;;;;;;;;;6184174;28;20234;-71
2022/04/27 20:30:45;;;;;;;6.85;3.33;;;;;;;;;;6180626;28;20745;-70
2022/04/27 20:34:06;;;;;;;8.87;3.97;;;;;;;;;;6178902;28;20234;-69
2022/04/27 20:37:29;;;;;;;8.23;3.53;;;;;;;;;;6175429;28;20348;-71
2022/04/27 20:40:50;;;;;;;6.63;2.77;;;;;;;;;;6182061;28;20231;-70
2022/04/27 20:44:11;;;;;;;9.83;4.27;;;;;;;;;;6177927;28;20241;-70
2022/04/27 20:47:32;;;;;;;6.50;3.30;;;;;;;;;;6180492;28;20234;-70
2022/04/27 20:50:52;;;;;;;5.53;3.57;;;;;;;;;;6184191;28;20615;-70
2022/04/27 20:54:13;;;;;;;5.17;3.03;;;;;;;;;;6176957;28;20238;-70
2022/04/27 20:57:39;;;;;;;6.00;3.20;;;;;;;;;;6173248;28;20252;-71
2022/04/27 21:01:00;;;;;;;8.40;4.37;;;;;;;;;;6172547;28;20241;-70